A- A+ FrançaisEnglishEspañol中国

最近的 MMPR Puerto VallartaYKII King IslandWSSS Singapore ChangiWSAP Singapore Paya LebarLFBT Tarbes-Lourdes-PyrénéesLFOL L'aigle-St-Michel

飞行员的航空天气,使用METAR(气象机场报告)进行的飞行准备和TAF(终端机场预报:针对以下情况的短期天气预报)航空)。 以及其他资源,例如VAC(目视进近图)和NOTAM(通知飞行员)以进行预试飞行.

METAR, TAF, VAC, NOTAM Nacala机场 (Mozambique) / OACI FQNC/ IATA MNC

它位于附近 Nacala (Mozambique) 可提供5天天气预报 Cidade de Nacala 在 7.4 km, Ilha de Mocambique 在 61 km, Chibobar 在 169 km, Pemba 在 170 km, Nampula 在 170 km, Miceti 在 173 km, Malatane 在 207 km, Antonio Enes 在 212 km,

机场的高度为 Nacala机场的

125 m = 410 ft

附近的机场 Nacala机场的

跑道 Nacala机场的

METAR Nacala机场的 - FQNC

FQNC 081000Z 06008KT 010V080 9999 SCT020 32/24 Q1014

Nacala机场METAR解码 (Mozambique)

FQNC机场发行的METAR日期2020年04月08日至10:00 GMT, 警告:此METAR已过期, 已于 59 天 19 小时 24 分钟.

可见度为大于 10 km = 大于6.2 sm.

温度为32°C = 90 °F 露点为24°C = 75 °F 。 这相当于63%的相对湿度。.

QNH是1014 hPa = 29.94 inHg

的风8 kt = 15 km/h, 风向为60°.

云:距离2000 ft = 610 m.

TAF Nacala机场的 - FQNC

FQNC 102200Z 1100/1200 22008KT 9999 SCT020 TX29/1113Z TN19/1103Z BECMG 1109/1111 16007KT

Nacala机场TAF解码 (Mozambique)

FQNC机场发行的TAF日期2020年05月11日至22:00 GMT 警告:此TAF已过期, 已于 27 天 7 小时 24 分钟.

du lundi 11 mai 2020 à 00:00 heure TU au lundi 11 mai 2020 à 09:00 heure TU

的风8 kt = 15 km/h, 风向为220°.

可见度为大于 10 km = 大于6.2 sm.

距离 2000 ft=610云.

变得 du lundi 11 mai 2020 à 09:00 heure TU au mardi 12 mai 2020 à 00:00 heure TU

的风7 kt = 13 km/h, 风向为160°.

Nacala机场的NOTAM

提供的NOTAM不能保证其时事性。 在将其用于飞行准备或在飞行期间使用之前,飞行员是唯一负责验证其有效性的人员。

没有通知

数据源